This is the latest recevied weather packets stored in our database for station/object VE3MJM-WX. If no packets are shown the sender has not sent any weather packets the latest 10 day(s).
| Time | Temp. | Humidity | Pressure | Rain* | Wind** | Luminosity | Snow |
|---|---|---|---|---|---|---|---|
| 1777454124 | 7.22° C | 94% | 1007.4 hPa | 0 mm | - | - | - |
| 1777453221 | 6.67° C | 95% | 1007.6 hPa | 0 mm | - | - | - |
| 1777452319 | 6.67° C | 94% | 1007.2 hPa | 0 mm | - | - | - |
| 1777451416 | 6.67° C | 92% | 1007.1 hPa | 0 mm | - | - | - |
| 1777450514 | 7.22° C | 91% | 1007.3 hPa | 0 mm | - | - | - |
| 1777449611 | 7.78° C | 91% | 1007.3 hPa | 0 mm | - | - | - |
| 1777448708 | 7.78° C | 90% | 1007.5 hPa | 0 mm | - | - | - |
| 1777447808 | 7.78° C | 91% | 1007.2 hPa | 0 mm | - | - | - |
| 1777446904 | 8.33° C | 91% | 1007.5 hPa | 0 mm | - | - | - |
| 1777446001 | 8.33° C | 94% | 1007.6 hPa | 0 mm | - | - | - |
| 1777445098 | 7.78° C | 97% | 1007.3 hPa | 0 mm | - | - | - |
| 1777444196 | 7.22° C | 99% | 1006.8 hPa | 0 mm | - | - | - |
| 1777443294 | 6.67° C | 99% | 1007.3 hPa | 0 mm | - | - | - |
| 1777442391 | 6.67° C | 99% | 1007.3 hPa | 0 mm | - | - | - |
| 1777440586 | 7.22° C | 99% | 1008 hPa | 0 mm | - | - | - |
| 1777439683 | 7.22° C | 99% | 1008.1 hPa | 0 mm | - | - | - |
| 1777438781 | 7.22° C | 99% | 1007.9 hPa | 0 mm | - | - | - |
| 1777437879 | 7.78° C | 99% | 1007.9 hPa | 0 mm | - | - | - |
| 1777436975 | 7.78° C | 97% | 1007.9 hPa | 0 mm | - | - | - |
| 1777435953 | 8.33° C | 96% | 1007.7 hPa | 0 mm | - | - | - |
| 1777435050 | 8.89° C | 95% | 1007.8 hPa | 0 mm | - | - | - |
| 1777434147 | 8.33° C | 96% | 1007.5 hPa | 0 mm | - | - | - |
| 1777433245 | 8.89° C | 95% | 1007.6 hPa | 0 mm | - | - | - |
| 1777432342 | 9.44° C | 92% | 1007.5 hPa | 0 mm | - | - | - |
| 1777431440 | 10° C | 91% | 1007.5 hPa | 0 mm | - | - | - |
* Rain latest hour (hover to see other rain measurements)
** Current wind speed in m/s (hover to see current wind gust speed)